Time;durP1;ratioP1;P1;durP2;ratioP2;P2;SDS_P1;SDS_P2;PMS_P1;PMS_P2;Temp;Humidity;BMP_temperature;BMP_pressure;BME280_temperature;BME280_humidity;BME280_pressure;Samples;Min_cycle;Max_cycle;Signal;HPM_P1;HPM_P2
2022/01/29 00:00:59;;;;;;;0.10;0.10;;;;;;;;;;5071676;28;20056;-66
2022/01/29 00:03:25;;;;;;;0.20;0.20;;;;;;;;;;5074844;28;20094;-67
2022/01/29 00:05:51;;;;;;;0.15;0.15;;;;;;;;;;5080757;28;20028;-65
2022/01/29 00:08:17;;;;;;;0.30;0.30;;;;;;;;;;5079770;28;20453;-65
2022/01/29 00:10:44;;;;;;;0.85;0.85;;;;;;;;;;5056567;28;20070;-65
2022/01/29 00:13:09;;;;;;;0.10;0.10;;;;;;;;;;5074409;28;20032;-65
2022/01/29 00:15:35;;;;;;;0.52;0.52;;;;;;;;;;5074288;28;20017;-66
2022/01/29 00:18:01;;;;;;;0.10;0.10;;;;;;;;;;5074280;28;20047;-65
2022/01/29 00:20:27;;;;;;;0.10;0.10;;;;;;;;;;5074299;28;20024;-65
2022/01/29 00:22:53;;;;;;;1.98;1.85;;;;;;;;;;5074566;28;20426;-65
2022/01/29 00:25:18;;;;;;;0.15;0.15;;;;;;;;;;5074388;28;20013;-65
2022/01/29 00:27:44;;;;;;;1.48;0.82;;;;;;;;;;5056364;28;20044;-65
2022/01/29 00:30:14;;;;;;;0.10;0.10;;;;;;;;;;5074111;28;20021;-66
2022/01/29 00:32:40;;;;;;;0.20;0.20;;;;;;;;;;5056514;28;20400;-65
2022/01/29 00:35:06;;;;;;;0.10;0.10;;;;;;;;;;5074378;28;20036;-65
2022/01/29 00:37:31;;;;;;;0.10;0.10;;;;;;;;;;5074260;28;20123;-65
2022/01/29 00:39:57;;;;;;;0.10;0.10;;;;;;;;;;5039483;28;20082;-66
2022/01/29 00:42:23;;;;;;;0.10;0.10;;;;;;;;;;5039356;28;20115;-66
2022/01/29 00:44:49;;;;;;;0.10;0.10;;;;;;;;;;5055944;28;20074;-66
2022/01/29 00:47:15;;;;;;;0.10;0.10;;;;;;;;;;5073722;28;20489;-67
2022/01/29 00:49:41;;;;;;;0.10;0.10;;;;;;;;;;5073710;28;20470;-66
2022/01/29 00:52:07;;;;;;;0.20;0.20;;;;;;;;;;5055783;28;20072;-67
2022/01/29 00:54:32;;;;;;;0.10;0.10;;;;;;;;;;5073264;28;20033;-66
2022/01/29 00:56:58;;;;;;;0.10;0.10;;;;;;;;;;5073393;28;20036;-66
2022/01/29 00:59:23;;;;;;;0.10;0.10;;;;;;;;;;5073716;28;20487;-66
2022/01/29 01:01:49;;;;;;;0.10;0.10;;;;;;;;;;5055963;28;20107;-67
2022/01/29 01:04:14;;;;;;;0.20;0.20;;;;;;;;;;5073996;28;20028;-68
2022/01/29 01:06:40;;;;;;;0.20;0.20;;;;;;;;;;5080644;28;20036;-67
2022/01/29 01:09:06;;;;;;;0.10;0.10;;;;;;;;;;5077892;28;20043;-67
2022/01/29 01:11:31;;;;;;;0.30;0.30;;;;;;;;;;5073778;28;20129;-68
2022/01/29 01:13:57;;;;;;;0.10;0.10;;;;;;;;;;5055309;28;20036;-66
2022/01/29 01:16:22;;;;;;;0.10;0.10;;;;;;;;;;5073301;28;20036;-68
2022/01/29 01:18:48;;;;;;;0.10;0.10;;;;;;;;;;5055784;28;20036;-65
2022/01/29 01:21:13;;;;;;;0.10;0.10;;;;;;;;;;5055445;28;20036;-67
2022/01/29 01:23:39;;;;;;;0.10;0.10;;;;;;;;;;5055499;28;20465;-66
2022/01/29 01:26:04;;;;;;;0.10;0.10;;;;;;;;;;5073606;28;20035;-66
2022/01/29 01:28:30;;;;;;;0.28;0.28;;;;;;;;;;5073309;28;20039;-66
2022/01/29 01:30:56;;;;;;;0.10;0.10;;;;;;;;;;5073210;28;20033;-65
2022/01/29 01:33:21;;;;;;;2.22;2.13;;;;;;;;;;5073225;28;20031;-67
2022/01/29 01:35:51;;;;;;;0.20;0.20;;;;;;;;;;5073445;28;20028;-67
2022/01/29 01:38:30;;;;;;;0.10;0.10;;;;;;;;;;5073177;28;20033;-67
2022/01/29 01:41:01;;;;;;;0.10;0.10;;;;;;;;;;5073074;28;20127;-67
2022/01/29 01:43:28;;;;;;;0.10;0.10;;;;;;;;;;5039208;28;20029;-67
2022/01/29 01:45:53;;;;;;;0.10;0.10;;;;;;;;;;5038357;28;20093;-66
2022/01/29 01:48:19;;;;;;;0.10;0.10;;;;;;;;;;5073206;28;20111;-66
2022/01/29 01:50:45;;;;;;;0.10;0.10;;;;;;;;;;5072944;28;20031;-66
2022/01/29 01:53:10;;;;;;;0.10;0.10;;;;;;;;;;5073043;28;20037;-66
2022/01/29 01:55:37;;;;;;;0.20;0.20;;;;;;;;;;5072950;28;20036;-65
2022/01/29 01:58:03;;;;;;;0.10;0.10;;;;;;;;;;5072787;28;20042;-66
2022/01/29 02:00:29;;;;;;;0.10;0.10;;;;;;;;;;5072729;28;20090;-65
2022/01/29 02:02:54;;;;;;;0.10;0.10;;;;;;;;;;5055105;28;20024;-66
2022/01/29 02:05:19;;;;;;;0.10;0.10;;;;;;;;;;5054876;28;20384;-65
2022/01/29 02:07:45;;;;;;;0.20;0.20;;;;;;;;;;5054680;28;20035;-65
2022/01/29 02:10:12;;;;;;;0.68;0.68;;;;;;;;;;5054727;28;20031;-67
2022/01/29 02:13:05;;;;;;;0.13;0.13;;;;;;;;;;5058092;28;20089;-66
2022/01/29 02:15:31;;;;;;;0.13;0.13;;;;;;;;;;5077766;28;20047;-66
2022/01/29 02:17:56;;;;;;;1.95;1.38;;;;;;;;;;5075070;28;20061;-66
2022/01/29 02:20:26;;;;;;;2.65;1.17;;;;;;;;;;5081395;28;20029;-66
2022/01/29 02:22:52;;;;;;;2.72;1.15;;;;;;;;;;5072568;28;20043;-66
2022/01/29 02:25:37;;;;;;;0.35;0.35;;;;;;;;;;5054386;28;20044;-66
2022/01/29 02:28:07;;;;;;;0.10;0.10;;;;;;;;;;5072752;28;20142;-65
2022/01/29 02:30:34;;;;;;;0.30;0.30;;;;;;;;;;5072679;28;20422;-65
2022/01/29 02:33:02;;;;;;;0.30;0.30;;;;;;;;;;5072361;28;20151;-65
2022/01/29 02:35:28;;;;;;;0.10;0.10;;;;;;;;;;5072282;28;20017;-66
2022/01/29 02:37:54;;;;;;;0.15;0.15;;;;;;;;;;5072105;28;20055;-68
2022/01/29 02:40:22;;;;;;;0.10;0.10;;;;;;;;;;5054336;28;20048;-67
2022/01/29 02:42:48;;;;;;;1.55;1.45;;;;;;;;;;5072377;28;20492;-68
2022/01/29 02:45:13;;;;;;;0.10;0.10;;;;;;;;;;5072391;28;20029;-65
2022/01/29 02:47:39;;;;;;;0.10;0.10;;;;;;;;;;5072313;28;20090;-66
2022/01/29 02:50:04;;;;;;;0.10;0.10;;;;;;;;;;5072082;28;20039;-65
2022/01/29 02:52:30;;;;;;;0.10;0.10;;;;;;;;;;5037479;28;20028;-66
2022/01/29 02:54:55;;;;;;;0.10;0.10;;;;;;;;;;5054099;28;20033;-66
2022/01/29 02:57:21;;;;;;;0.10;0.10;;;;;;;;;;5072042;28;20064;-66
2022/01/29 02:59:46;;;;;;;0.10;0.10;;;;;;;;;;5071919;28;20040;-66
2022/01/29 03:02:14;;;;;;;0.20;0.20;;;;;;;;;;5054049;28;20031;-66
2022/01/29 03:04:40;;;;;;;0.10;0.10;;;;;;;;;;5053915;28;20033;-66
2022/01/29 03:07:06;;;;;;;0.10;0.10;;;;;;;;;;5071853;28;20037;-66
2022/01/29 03:09:32;;;;;;;0.10;0.10;;;;;;;;;;5054448;28;20095;-67
2022/01/29 03:11:58;;;;;;;0.10;0.10;;;;;;;;;;5053791;28;20035;-66
2022/01/29 03:14:24;;;;;;;0.10;0.10;;;;;;;;;;5072039;28;20036;-66
2022/01/29 03:16:50;;;;;;;0.10;0.10;;;;;;;;;;5071796;28;20393;-66
2022/01/29 03:19:15;;;;;;;0.10;0.10;;;;;;;;;;5073823;28;20025;-66
2022/01/29 03:21:41;;;;;;;0.10;0.10;;;;;;;;;;5075297;28;20048;-66
2022/01/29 03:24:06;;;;;;;0.10;0.10;;;;;;;;;;5057346;28;20486;-67
2022/01/29 03:26:32;;;;;;;0.10;0.10;;;;;;;;;;5075139;28;20036;-67
2022/01/29 03:28:57;;;;;;;0.10;0.10;;;;;;;;;;5040681;28;20032;-66
2022/01/29 03:31:26;;;;;;;0.10;0.10;;;;;;;;;;5057252;28;20025;-66
2022/01/29 03:33:52;;;;;;;0.10;0.10;;;;;;;;;;5075019;28;20103;-66
2022/01/29 03:36:18;;;;;;;0.10;0.10;;;;;;;;;;5075222;28;20119;-66
2022/01/29 03:38:44;;;;;;;0.10;0.10;;;;;;;;;;5057045;28;20071;-68
2022/01/29 03:41:11;;;;;;;0.10;0.10;;;;;;;;;;5075142;28;20536;-65
2022/01/29 03:43:44;;;;;;;0.10;0.10;;;;;;;;;;5057622;28;20036;-67
2022/01/29 03:46:09;;;;;;;0.10;0.10;;;;;;;;;;5095043;28;20395;-67
2022/01/29 03:48:35;;;;;;;0.10;0.10;;;;;;;;;;5077096;28;20040;-66
2022/01/29 03:51:00;;;;;;;0.10;0.10;;;;;;;;;;5094944;28;20036;-66
2022/01/29 03:53:26;;;;;;;0.10;0.10;;;;;;;;;;5095075;28;20040;-67
2022/01/29 03:55:51;;;;;;;3.97;1.02;;;;;;;;;;5076960;28;20028;-67
2022/01/29 03:58:17;;;;;;;0.20;0.20;;;;;;;;;;5095018;28;20020;-66
2022/01/29 04:00:42;;;;;;;0.10;0.10;;;;;;;;;;5076943;28;20491;-65
2022/01/29 04:03:08;;;;;;;0.45;0.45;;;;;;;;;;5082208;28;20036;-67
2022/01/29 04:05:34;;;;;;;0.52;0.52;;;;;;;;;;5036547;28;20024;-66
2022/01/29 04:08:00;;;;;;;0.30;0.30;;;;;;;;;;5070695;28;20385;-67
2022/01/29 04:10:27;;;;;;;10.88;3.35;;;;;;;;;;5070908;28;20068;-67
2022/01/29 04:12:53;;;;;;;0.10;0.10;;;;;;;;;;5070479;28;20025;-67
2022/01/29 04:15:19;;;;;;;0.10;0.10;;;;;;;;;;5052928;28;20095;-66
2022/01/29 04:17:45;;;;;;;0.10;0.10;;;;;;;;;;5052675;28;20032;-66
2022/01/29 04:20:11;;;;;;;0.10;0.10;;;;;;;;;;5052391;28;20047;-67
2022/01/29 04:22:36;;;;;;;0.20;0.20;;;;;;;;;;5070674;28;20753;-66
2022/01/29 04:25:02;;;;;;;0.30;0.30;;;;;;;;;;5035772;28;20098;-67
2022/01/29 04:27:38;;;;;;;0.10;0.10;;;;;;;;;;5070418;28;20032;-66
2022/01/29 04:30:09;;;;;;;0.10;0.10;;;;;;;;;;5069302;28;20089;-64
2022/01/29 04:35:04;;;;;;;0.10;0.10;;;;;;;;;;5070634;28;20032;-66
2022/01/29 04:37:29;;;;;;;0.10;0.10;;;;;;;;;;5070514;28;20048;-65
2022/01/29 04:39:55;;;;;;;0.10;0.10;;;;;;;;;;5070267;28;20031;-66
2022/01/29 04:42:20;;;;;;;0.10;0.10;;;;;;;;;;5052437;28;20045;-65
2022/01/29 04:44:46;;;;;;;0.10;0.10;;;;;;;;;;5070262;28;20116;-67
2022/01/29 04:47:11;;;;;;;0.20;0.20;;;;;;;;;;5070300;28;20032;-66
2022/01/29 04:49:37;;;;;;;0.10;0.10;;;;;;;;;;5069936;28;20033;-66
2022/01/29 04:52:03;;;;;;;1.73;1.38;;;;;;;;;;5052183;28;20499;-67
2022/01/29 04:54:28;;;;;;;0.10;0.10;;;;;;;;;;5051970;28;20028;-66
2022/01/29 04:56:54;;;;;;;0.20;0.20;;;;;;;;;;5069448;28;20468;-67
2022/01/29 04:59:19;;;;;;;0.10;0.10;;;;;;;;;;5070095;28;20467;-67
2022/01/29 05:01:45;;;;;;;0.20;0.20;;;;;;;;;;5052350;28;20037;-66
2022/01/29 05:04:11;;;;;;;0.10;0.10;;;;;;;;;;5069867;28;20028;-67
2022/01/29 05:06:36;;;;;;;0.50;0.50;;;;;;;;;;5051831;28;20369;-67
2022/01/29 05:09:03;;;;;;;0.10;0.10;;;;;;;;;;5052083;28;20039;-67
2022/01/29 05:11:29;;;;;;;0.10;0.10;;;;;;;;;;5069829;28;20036;-67
2022/01/29 05:13:54;;;;;;;0.10;0.10;;;;;;;;;;5069359;28;20032;-66
2022/01/29 05:27:35;;;;;;;0.10;0.10;;;;;;;;;;5051283;28;20044;-66
2022/01/29 05:30:01;;;;;;;0.10;0.10;;;;;;;;;;5051299;28;20035;-65
2022/01/29 05:32:27;;;;;;;0.10;0.10;;;;;;;;;;5069425;28;20107;-67
2022/01/29 05:34:53;;;;;;;0.10;0.10;;;;;;;;;;5069238;28;20150;-66
2022/01/29 05:37:19;;;;;;;0.38;0.38;;;;;;;;;;5069464;28;20450;-68
2022/01/29 05:39:44;;;;;;;0.10;0.10;;;;;;;;;;5069126;28;20426;-68
2022/01/29 05:42:10;;;;;;;0.10;0.10;;;;;;;;;;5068917;28;20068;-68
2022/01/29 05:44:36;;;;;;;0.10;0.10;;;;;;;;;;5051074;28;20123;-68
2022/01/29 05:47:01;;;;;;;0.10;0.10;;;;;;;;;;5069217;28;20037;-69
2022/01/29 05:49:27;;;;;;;0.10;0.10;;;;;;;;;;5051096;28;20052;-68
2022/01/29 05:51:53;;;;;;;0.10;0.10;;;;;;;;;;5034254;28;20115;-67
2022/01/29 05:54:19;;;;;;;0.10;0.10;;;;;;;;;;5056370;28;20434;-66
2022/01/29 05:56:44;;;;;;;0.10;0.10;;;;;;;;;;5077218;28;20032;-65
2022/01/29 05:59:10;;;;;;;0.10;0.10;;;;;;;;;;5050677;28;20036;-66
2022/01/29 06:01:35;;;;;;;0.10;0.10;;;;;;;;;;5069179;28;20024;-65
2022/01/29 06:04:01;;;;;;;0.73;0.57;;;;;;;;;;5068855;28;20032;-68
2022/01/29 06:06:26;;;;;;;0.20;0.20;;;;;;;;;;5069130;28;20553;-66
2022/01/29 06:08:52;;;;;;;1.63;1.33;;;;;;;;;;5050743;28;20044;-65
2022/01/29 06:11:17;;;;;;;0.10;0.10;;;;;;;;;;5050755;28;20025;-64
2022/01/29 06:13:43;;;;;;;0.10;0.10;;;;;;;;;;5050662;28;20028;-67
2022/01/29 06:16:10;;;;;;;0.10;0.10;;;;;;;;;;5068831;28;20078;-67
2022/01/29 06:18:37;;;;;;;0.10;0.10;;;;;;;;;;5068661;28;20067;-67
2022/01/29 06:21:08;;;;;;;0.55;0.52;;;;;;;;;;5033959;28;20550;-67
2022/01/29 06:23:36;;;;;;;0.10;0.10;;;;;;;;;;5068322;28;20048;-66
2022/01/29 06:26:03;;;;;;;0.10;0.10;;;;;;;;;;5068178;28;20025;-66
2022/01/29 06:28:29;;;;;;;0.10;0.10;;;;;;;;;;5050546;28;20039;-67
2022/01/29 06:30:54;;;;;;;0.20;0.20;;;;;;;;;;5068279;28;20037;-65
2022/01/29 06:33:20;;;;;;;0.10;0.10;;;;;;;;;;5068256;28;20029;-67
2022/01/29 06:35:46;;;;;;;0.10;0.10;;;;;;;;;;5068619;28;20039;-65
2022/01/29 06:38:12;;;;;;;0.10;0.10;;;;;;;;;;5075341;28;20096;-67
2022/01/29 06:40:38;;;;;;;0.10;0.10;;;;;;;;;;5078884;28;20066;-65
2022/01/29 06:43:04;;;;;;;0.10;0.10;;;;;;;;;;5088911;28;20028;-66
2022/01/29 06:45:30;;;;;;;0.10;0.10;;;;;;;;;;5088699;28;20103;-67
2022/01/29 06:47:56;;;;;;;0.10;0.10;;;;;;;;;;5070337;28;20032;-67
2022/01/29 06:50:21;;;;;;;0.10;0.10;;;;;;;;;;5070371;28;20016;-67
2022/01/29 06:52:47;;;;;;;0.10;0.10;;;;;;;;;;5053302;28;20035;-66
2022/01/29 06:55:12;;;;;;;0.10;0.10;;;;;;;;;;5092006;28;20506;-67
2022/01/29 06:57:38;;;;;;;0.10;0.10;;;;;;;;;;5092289;28;20032;-67
2022/01/29 07:00:07;;;;;;;0.17;0.17;;;;;;;;;;5092229;28;20040;-67
2022/01/29 07:02:32;;;;;;;0.10;0.10;;;;;;;;;;5091754;28;20024;-67
2022/01/29 07:04:58;;;;;;;0.10;0.10;;;;;;;;;;5073579;28;20451;-67
2022/01/29 07:07:23;;;;;;;0.10;0.10;;;;;;;;;;5091923;28;20034;-67
2022/01/29 07:09:48;;;;;;;0.10;0.10;;;;;;;;;;5091840;28;20089;-67
2022/01/29 07:12:14;;;;;;;0.10;0.10;;;;;;;;;;5091642;28;20016;-67
2022/01/29 07:14:40;;;;;;;0.10;0.10;;;;;;;;;;5091825;28;20032;-67
2022/01/29 07:17:09;;;;;;;0.10;0.10;;;;;;;;;;5073805;28;20392;-67
2022/01/29 07:19:35;;;;;;;0.10;0.10;;;;;;;;;;5073367;28;20523;-66
2022/01/29 07:22:01;;;;;;;0.20;0.20;;;;;;;;;;5091560;28;20028;-69
2022/01/29 07:24:26;;;;;;;1.10;0.88;;;;;;;;;;5091600;28;20070;-67
2022/01/29 07:26:52;;;;;;;0.10;0.10;;;;;;;;;;5091619;28;20034;-67
2022/01/29 07:29:17;;;;;;;0.10;0.10;;;;;;;;;;5091628;28;20043;-68
2022/01/29 07:31:43;;;;;;;0.10;0.10;;;;;;;;;;5091515;28;20054;-66
2022/01/29 07:34:08;;;;;;;0.05;0.05;;;;;;;;;;5073249;28;20039;-67
2022/01/29 07:36:34;;;;;;;0.80;0.57;;;;;;;;;;5073031;28;20040;-68
2022/01/29 07:38:59;;;;;;;0.10;0.10;;;;;;;;;;5073055;28;20404;-68
2022/01/29 07:41:25;;;;;;;0.00;0.00;;;;;;;;;;5073257;28;20036;-66
2022/01/29 07:43:50;;;;;;;0.10;0.10;;;;;;;;;;5073350;28;20102;-67
2022/01/29 07:46:16;;;;;;;0.13;0.13;;;;;;;;;;5091381;28;20082;-66
2022/01/29 07:48:41;;;;;;;0.20;0.20;;;;;;;;;;5091306;28;20177;-66
2022/01/29 07:51:07;;;;;;;3.22;3.03;;;;;;;;;;5073188;28;20051;-67
2022/01/29 07:53:32;;;;;;;0.30;0.30;;;;;;;;;;5091399;28;20580;-67
2022/01/29 07:55:58;;;;;;;0.70;0.70;;;;;;;;;;5069376;28;20051;-68
2022/01/29 07:58:23;;;;;;;0.10;0.10;;;;;;;;;;5078010;28;20029;-67
2022/01/29 08:00:49;;;;;;;0.20;0.20;;;;;;;;;;5070577;28;20395;-67
2022/01/29 08:03:14;;;;;;;0.13;0.13;;;;;;;;;;5052758;28;20024;-69
2022/01/29 08:05:40;;;;;;;0.13;0.13;;;;;;;;;;5052707;28;20037;-68
2022/01/29 08:08:06;;;;;;;0.30;0.30;;;;;;;;;;5060532;28;20028;-69
2022/01/29 08:10:32;;;;;;;0.10;0.10;;;;;;;;;;5079314;28;20141;-69
2022/01/29 08:12:58;;;;;;;0.28;0.28;;;;;;;;;;5081177;28;20509;-68
2022/01/29 08:15:23;;;;;;;0.10;0.10;;;;;;;;;;5077407;28;20037;-67
2022/01/29 08:17:49;;;;;;;0.10;0.10;;;;;;;;;;5061833;28;20028;-67
2022/01/29 08:20:14;;;;;;;0.10;0.10;;;;;;;;;;5081182;28;20044;-68
2022/01/29 08:22:40;;;;;;;0.17;0.17;;;;;;;;;;5058058;28;20112;-69
2022/01/29 08:25:05;;;;;;;0.20;0.20;;;;;;;;;;5064056;28;20036;-69
2022/01/29 08:27:31;;;;;;;0.10;0.10;;;;;;;;;;5088542;28;20036;-70
2022/01/29 08:29:56;;;;;;;0.10;0.10;;;;;;;;;;5088581;28;20032;-69
2022/01/29 08:32:22;;;;;;;0.20;0.20;;;;;;;;;;5070081;28;20036;-69
2022/01/29 08:34:47;;;;;;;0.20;0.20;;;;;;;;;;5070286;28;20644;-69
2022/01/29 08:37:13;;;;;;;1.90;1.85;;;;;;;;;;5086762;28;20508;-70
2022/01/29 08:39:40;;;;;;;0.10;0.10;;;;;;;;;;5084508;28;20071;-69
2022/01/29 08:42:06;;;;;;;0.28;0.28;;;;;;;;;;5061327;28;20989;-69
2022/01/29 08:44:32;;;;;;;0.30;0.30;;;;;;;;;;5075902;28;20052;-69
2022/01/29 08:46:58;;;;;;;0.10;0.10;;;;;;;;;;5076352;28;20059;-69
2022/01/29 08:49:25;;;;;;;0.20;0.20;;;;;;;;;;5076242;28;20020;-69
2022/01/29 08:51:51;;;;;;;9.05;6.25;;;;;;;;;;5060046;28;20051;-69
2022/01/29 08:54:17;;;;;;;0.10;0.10;;;;;;;;;;5075594;28;20048;-69
2022/01/29 08:56:42;;;;;;;0.28;0.28;;;;;;;;;;5051855;28;20064;-69
2022/01/29 08:59:08;;;;;;;0.25;0.25;;;;;;;;;;5052128;28;20472;-69
2022/01/29 09:01:33;;;;;;;0.10;0.10;;;;;;;;;;5079927;28;20040;-70
2022/01/29 09:04:00;;;;;;;0.10;0.10;;;;;;;;;;5075725;28;20039;-69
2022/01/29 09:06:27;;;;;;;0.20;0.20;;;;;;;;;;5077000;28;20035;-70
2022/01/29 09:08:52;;;;;;;0.20;0.20;;;;;;;;;;5071633;28;20035;-68
2022/01/29 09:11:18;;;;;;;0.40;0.40;;;;;;;;;;5054998;28;20364;-71
2022/01/29 09:15:37;;;;;;;0.43;0.43;;;;;;;;;;5131782;27;20888;-65
2022/01/29 09:18:03;;;;;;;0.30;0.30;;;;;;;;;;5125870;28;20058;-67
2022/01/29 09:20:29;;;;;;;0.47;0.47;;;;;;;;;;5126158;28;20023;-67
2022/01/29 09:22:55;;;;;;;1.15;1.00;;;;;;;;;;5107767;28;20173;-67
2022/01/29 09:25:20;;;;;;;0.55;0.55;;;;;;;;;;5107737;28;20498;-66
2022/01/29 09:27:46;;;;;;;0.80;0.80;;;;;;;;;;5125841;28;20019;-66
2022/01/29 09:30:11;;;;;;;0.30;0.30;;;;;;;;;;5107814;28;20035;-66
2022/01/29 09:32:37;;;;;;;0.30;0.30;;;;;;;;;;5107306;28;20072;-66
2022/01/29 09:35:03;;;;;;;0.50;0.50;;;;;;;;;;5125866;28;20035;-65
2022/01/29 09:37:28;;;;;;;1.75;1.30;;;;;;;;;;5126092;28;20088;-65
2022/01/29 09:39:54;;;;;;;1.00;0.95;;;;;;;;;;5125859;28;20042;-65
2022/01/29 09:42:20;;;;;;;1.05;0.77;;;;;;;;;;5125652;28;20042;-66
2022/01/29 09:44:47;;;;;;;0.60;0.60;;;;;;;;;;5090222;28;20117;-67
2022/01/29 09:47:12;;;;;;;0.25;0.25;;;;;;;;;;5124842;28;20085;-66
2022/01/29 09:49:38;;;;;;;0.55;0.55;;;;;;;;;;5104975;28;20680;-66
2022/01/29 09:52:03;;;;;;;0.38;0.38;;;;;;;;;;5125277;28;20512;-66
2022/01/29 09:54:29;;;;;;;0.52;0.52;;;;;;;;;;5125106;28;20040;-67
2022/01/29 09:56:55;;;;;;;0.20;0.20;;;;;;;;;;5123360;28;20050;-66
2022/01/29 09:59:21;;;;;;;0.30;0.30;;;;;;;;;;5123409;28;20054;-65
2022/01/29 10:01:46;;;;;;;0.30;0.30;;;;;;;;;;5105168;28;20023;-65
2022/01/29 10:04:12;;;;;;;0.30;0.30;;;;;;;;;;5088351;28;20432;-67
2022/01/29 10:06:38;;;;;;;0.52;0.52;;;;;;;;;;5123226;27;20026;-66
2022/01/29 10:09:09;;;;;;;0.30;0.30;;;;;;;;;;5104867;28;20035;-66
2022/01/29 10:11:35;;;;;;;0.88;0.52;;;;;;;;;;5106625;28;20027;-66
2022/01/29 10:14:02;;;;;;;0.30;0.30;;;;;;;;;;5110587;28;20136;-66
2022/01/29 10:16:28;;;;;;;0.20;0.20;;;;;;;;;;5086668;28;20089;-66
2022/01/29 10:19:07;;;;;;;0.20;0.20;;;;;;;;;;5104505;28;20056;-66
2022/01/29 10:21:34;;;;;;;0.30;0.30;;;;;;;;;;5086877;28;20036;-66
2022/01/29 10:24:02;;;;;;;0.28;0.28;;;;;;;;;;5104512;28;20391;-67
2022/01/29 10:26:28;;;;;;;1.70;1.63;;;;;;;;;;5059564;28;20028;-66
2022/01/29 10:28:54;;;;;;;0.40;0.40;;;;;;;;;;5090655;28;20081;-67
2022/01/29 10:31:20;;;;;;;0.30;0.30;;;;;;;;;;5056211;28;20086;-67
2022/01/29 10:33:45;;;;;;;0.40;0.40;;;;;;;;;;5091163;28;20414;-66
2022/01/29 10:36:17;;;;;;;0.30;0.30;;;;;;;;;;5090914;28;20044;-66
2022/01/29 10:38:53;;;;;;;0.40;0.40;;;;;;;;;;5055918;28;20036;-66
2022/01/29 10:41:26;;;;;;;0.40;0.40;;;;;;;;;;5055943;28;20036;-66
2022/01/29 10:44:13;;;;;;;0.40;0.40;;;;;;;;;;5056151;28;20032;-66
2022/01/29 10:46:44;;;;;;;0.40;0.40;;;;;;;;;;5090750;28;20043;-66
2022/01/29 10:49:17;;;;;;;0.40;0.40;;;;;;;;;;5072941;28;20392;-66
2022/01/29 10:51:53;;;;;;;0.40;0.40;;;;;;;;;;5055900;28;20550;-66
2022/01/29 10:54:19;;;;;;;0.40;0.40;;;;;;;;;;5055950;28;20122;-67
2022/01/29 10:56:58;;;;;;;0.32;0.32;;;;;;;;;;5090398;28;20024;-67
2022/01/29 10:59:24;;;;;;;0.30;0.30;;;;;;;;;;5090880;28;20028;-67
2022/01/29 11:01:50;;;;;;;5.43;5.13;;;;;;;;;;5090278;28;20024;-67
2022/01/29 11:04:16;;;;;;;0.30;0.30;;;;;;;;;;5090649;28;20028;-67
2022/01/29 11:06:45;;;;;;;0.25;0.25;;;;;;;;;;5091038;28;20055;-67
2022/01/29 11:09:11;;;;;;;0.30;0.30;;;;;;;;;;5072764;28;20040;-67
2022/01/29 11:11:37;;;;;;;0.30;0.30;;;;;;;;;;5090914;28;20051;-67
2022/01/29 11:14:03;;;;;;;0.65;0.65;;;;;;;;;;5090399;28;20024;-66
2022/01/29 11:16:28;;;;;;;0.30;0.30;;;;;;;;;;5072107;28;20555;-66
2022/01/29 11:18:54;;;;;;;0.30;0.30;;;;;;;;;;5090087;28;20038;-66
2022/01/29 11:21:19;;;;;;;0.50;0.50;;;;;;;;;;5090146;28;20027;-67
2022/01/29 11:23:45;;;;;;;0.30;0.30;;;;;;;;;;5090311;28;20036;-66
2022/01/29 11:26:10;;;;;;;1.95;0.70;;;;;;;;;;5072226;28;20028;-66
2022/01/29 11:28:36;;;;;;;0.52;0.52;;;;;;;;;;5071816;28;20032;-67
2022/01/29 11:31:11;;;;;;;1.08;0.60;;;;;;;;;;5071872;28;20059;-66
2022/01/29 11:33:55;;;;;;;0.20;0.20;;;;;;;;;;5090357;28;20082;-66
2022/01/29 11:36:20;;;;;;;0.40;0.40;;;;;;;;;;5090084;28;20032;-66
2022/01/29 11:38:46;;;;;;;0.80;0.80;;;;;;;;;;5070763;28;20042;-66
2022/01/29 11:41:11;;;;;;;0.20;0.20;;;;;;;;;;5072068;28;20040;-66
2022/01/29 11:43:38;;;;;;;1.55;1.45;;;;;;;;;;5071674;28;20055;-65
2022/01/29 11:46:07;;;;;;;0.30;0.30;;;;;;;;;;5089906;28;20031;-66
2022/01/29 11:48:35;;;;;;;0.25;0.25;;;;;;;;;;5054679;28;20085;-66
2022/01/29 11:51:02;;;;;;;1.40;1.00;;;;;;;;;;5054675;28;20036;-65
2022/01/29 11:53:49;;;;;;;4.03;2.33;;;;;;;;;;5054621;28;20353;-65
2022/01/29 11:56:29;;;;;;;2.72;1.75;;;;;;;;;;5071586;28;20028;-65
2022/01/29 11:59:14;;;;;;;6.38;2.25;;;;;;;;;;5071729;28;20036;-65
2022/01/29 12:01:39;;;;;;;2.42;1.63;;;;;;;;;;5089816;28;20039;-64
2022/01/29 12:04:05;;;;;;;0.52;0.52;;;;;;;;;;5089559;28;20016;-67
2022/01/29 12:06:34;;;;;;;0.47;0.43;;;;;;;;;;5071316;28;20028;-65
2022/01/29 12:11:28;;;;;;;1.10;0.95;;;;;;;;;;5071686;28;20085;-65
2022/01/29 12:14:12;;;;;;;0.70;0.60;;;;;;;;;;5089470;28;20086;-66
2022/01/29 12:16:47;;;;;;;2.13;1.38;;;;;;;;;;5089507;28;20032;-67
2022/01/29 12:19:32;;;;;;;2.92;0.85;;;;;;;;;;5070871;28;20123;-68
2022/01/29 12:21:57;;;;;;;0.73;0.47;;;;;;;;;;5089633;28;20032;-67
2022/01/29 12:24:23;;;;;;;0.55;0.50;;;;;;;;;;5071224;28;20143;-66
2022/01/29 12:26:57;;;;;;;0.98;0.88;;;;;;;;;;5089044;28;20036;-66
2022/01/29 12:29:23;;;;;;;7.88;2.42;;;;;;;;;;5054230;28;20028;-65
2022/01/29 12:31:49;;;;;;;1.00;0.85;;;;;;;;;;5054565;28;20036;-66
2022/01/29 12:34:15;;;;;;;1.58;0.80;;;;;;;;;;5054313;28;20399;-66
2022/01/29 12:36:40;;;;;;;0.82;0.70;;;;;;;;;;5070844;28;20047;-66
2022/01/29 12:39:06;;;;;;;0.98;0.70;;;;;;;;;;5070555;28;20123;-67
2022/01/29 12:41:37;;;;;;;2.00;0.95;;;;;;;;;;5088870;28;20364;-67
2022/01/29 12:44:08;;;;;;;0.38;0.38;;;;;;;;;;5088921;28;20031;-67
2022/01/29 12:46:34;;;;;;;0.40;0.40;;;;;;;;;;5053668;28;20122;-67
2022/01/29 12:49:06;;;;;;;0.32;0.32;;;;;;;;;;5053495;28;20445;-68
2022/01/29 12:51:33;;;;;;;3.28;2.97;;;;;;;;;;5053629;28;20031;-68
2022/01/29 12:53:59;;;;;;;0.98;0.75;;;;;;;;;;5054101;28;20048;-69
2022/01/29 12:56:29;;;;;;;0.30;0.30;;;;;;;;;;5053595;28;20059;-69
2022/01/29 12:58:55;;;;;;;2.05;0.68;;;;;;;;;;5053751;28;20043;-69
2022/01/29 13:01:23;;;;;;;1.70;1.08;;;;;;;;;;5070775;28;20036;-69
2022/01/29 13:03:49;;;;;;;2.07;0.97;;;;;;;;;;5053924;28;20032;-68
2022/01/29 13:06:15;;;;;;;2.13;1.60;;;;;;;;;;5070206;28;20036;-68
2022/01/29 13:08:41;;;;;;;1.02;0.70;;;;;;;;;;5053642;28;20477;-68
2022/01/29 13:11:26;;;;;;;2.13;0.98;;;;;;;;;;5088946;28;20036;-72
2022/01/29 13:13:52;;;;;;;1.58;0.68;;;;;;;;;;5053502;28;20127;-68
2022/01/29 13:16:18;;;;;;;1.45;1.02;;;;;;;;;;5088703;28;20111;-68
2022/01/29 13:18:44;;;;;;;1.38;0.70;;;;;;;;;;5053388;28;20032;-68
2022/01/29 13:21:11;;;;;;;0.32;0.32;;;;;;;;;;5052365;28;20042;-69
2022/01/29 13:23:37;;;;;;;3.08;1.30;;;;;;;;;;5069875;28;20036;-69
2022/01/29 13:26:17;;;;;;;1.58;1.17;;;;;;;;;;5053447;28;20563;-69
2022/01/29 13:28:48;;;;;;;6.05;1.15;;;;;;;;;;5053249;28;20028;-68
2022/01/29 13:31:14;;;;;;;0.82;0.82;;;;;;;;;;5070249;28;20035;-69
2022/01/29 13:33:40;;;;;;;2.70;0.77;;;;;;;;;;5070032;28;20055;-68
2022/01/29 13:36:06;;;;;;;0.52;0.47;;;;;;;;;;5053604;28;20070;-68
2022/01/29 13:38:38;;;;;;;5.03;1.63;;;;;;;;;;5087887;28;20040;-68
2022/01/29 13:41:04;;;;;;;3.00;1.42;;;;;;;;;;5053250;28;20071;-68
2022/01/29 13:43:32;;;;;;;0.30;0.30;;;;;;;;;;5087967;28;20056;-68
2022/01/29 13:46:05;;;;;;;0.47;0.47;;;;;;;;;;5070051;28;20028;-68
2022/01/29 13:48:51;;;;;;;1.13;1.08;;;;;;;;;;5070000;28;20060;-69
2022/01/29 13:51:30;;;;;;;0.22;0.22;;;;;;;;;;5053633;28;20092;-68
2022/01/29 13:53:58;;;;;;;0.82;0.82;;;;;;;;;;5069707;28;20210;-68
2022/01/29 13:56:25;;;;;;;1.23;0.68;;;;;;;;;;5053102;28;20032;-68
2022/01/29 13:58:53;;;;;;;0.60;0.60;;;;;;;;;;5052928;28;20496;-68
2022/01/29 14:01:37;;;;;;;1.00;0.65;;;;;;;;;;5054580;28;20051;-68
2022/01/29 14:04:04;;;;;;;1.67;1.05;;;;;;;;;;5056903;28;20038;-69
2022/01/29 14:06:54;;;;;;;0.30;0.30;;;;;;;;;;5073481;28;20111;-69
2022/01/29 14:09:47;;;;;;;0.30;0.30;;;;;;;;;;5073328;28;20043;-69
2022/01/29 14:12:10;;;;;;;0.30;0.30;;;;;;;;;;5073017;28;20040;-69
2022/01/29 14:14:41;;;;;;;0.80;0.60;;;;;;;;;;5072522;28;20517;-69
2022/01/29 14:17:09;;;;;;;0.60;0.60;;;;;;;;;;5056296;28;20032;-69
2022/01/29 14:19:36;;;;;;;0.30;0.30;;;;;;;;;;5091221;28;20028;-69
2022/01/29 14:22:03;;;;;;;0.93;0.60;;;;;;;;;;5073045;28;20042;-70
2022/01/29 14:24:29;;;;;;;0.30;0.30;;;;;;;;;;5055948;28;20065;-69
2022/01/29 14:26:56;;;;;;;0.90;0.77;;;;;;;;;;5073198;28;20032;-69
2022/01/29 14:29:22;;;;;;;0.68;0.68;;;;;;;;;;5056074;28;20032;-68
2022/01/29 14:31:48;;;;;;;0.30;0.30;;;;;;;;;;5056396;28;20537;-68
2022/01/29 14:34:14;;;;;;;0.30;0.30;;;;;;;;;;5090972;28;20032;-69
2022/01/29 14:36:41;;;;;;;0.30;0.30;;;;;;;;;;5091015;28;20070;-70
2022/01/29 14:39:07;;;;;;;0.32;0.32;;;;;;;;;;5090727;28;20264;-70
2022/01/29 14:41:34;;;;;;;0.40;0.40;;;;;;;;;;5056433;28;20028;-69
2022/01/29 14:44:00;;;;;;;0.50;0.50;;;;;;;;;;5072721;28;20476;-70
2022/01/29 14:46:25;;;;;;;5.43;1.38;;;;;;;;;;5090716;28;20028;-70
2022/01/29 14:48:52;;;;;;;1.42;1.33;;;;;;;;;;5090423;28;20040;-70
2022/01/29 14:51:26;;;;;;;5.97;2.53;;;;;;;;;;5055825;28;20040;-68
2022/01/29 14:53:52;;;;;;;0.22;0.22;;;;;;;;;;5055883;28;20032;-68
2022/01/29 14:56:18;;;;;;;1.65;1.08;;;;;;;;;;5056122;28;20032;-69
2022/01/29 14:58:43;;;;;;;0.30;0.30;;;;;;;;;;5072040;28;20551;-68
2022/01/29 15:01:08;;;;;;;0.88;0.75;;;;;;;;;;5090709;28;20040;-68